Time;durP1;ratioP1;P1;durP2;ratioP2;P2;SDS_P1;SDS_P2;PMS_P1;PMS_P2;Temp;Humidity;BMP_temperature;BMP_pressure;BME280_temperature;BME280_humidity;BME280_pressure;Samples;Min_cycle;Max_cycle;Signal;HPM_P1;HPM_P2
2021/01/20 00:02:09;;;;;;;3.37;1.93;;;5.20;70.70;;;;;;5068504;28;20198;-72
2021/01/20 00:04:35;;;;;;;3.60;1.97;;;5.20;70.70;;;;;;5066640;28;20245;-72
2021/01/20 00:07:01;;;;;;;1.90;1.50;;;5.20;71.00;;;;;;5068339;28;20469;-71
2021/01/20 00:09:26;;;;;;;2.57;1.80;;;5.30;71.10;;;;;;5068808;28;20287;-69
2021/01/20 00:11:52;;;;;;;2.03;1.50;;;5.30;71.30;;;;;;5068656;28;20219;-70
2021/01/20 00:14:18;;;;;;;4.20;2.20;;;5.40;71.00;;;;;;5048364;28;20196;-71
2021/01/20 00:16:45;;;;;;;1.80;1.23;;;5.50;71.00;;;;;;5048887;28;20208;-71
2021/01/20 00:19:11;;;;;;;2.63;1.73;;;5.50;70.80;;;;;;5048200;28;20431;-71
2021/01/20 00:21:38;;;;;;;1.60;1.23;;;5.50;70.80;;;;;;5049711;28;20419;-72
2021/01/20 00:24:05;;;;;;;2.63;1.63;;;5.60;71.10;;;;;;5049541;28;20832;-71
2021/01/20 00:26:32;;;;;;;3.27;1.73;;;5.50;71.00;;;;;;5050376;28;20569;-71
2021/01/20 00:28:58;;;;;;;3.20;2.00;;;5.50;71.30;;;;;;5049590;28;20496;-71
2021/01/20 00:31:24;;;;;;;3.43;2.27;;;5.40;71.70;;;;;;5044243;28;20439;-73
2021/01/20 00:33:49;;;;;;;2.90;2.17;;;5.30;71.80;;;;;;5047564;28;20441;-72
2021/01/20 00:36:15;;;;;;;4.33;2.67;;;5.30;72.30;;;;;;5047112;28;20231;-69
2021/01/20 00:38:41;;;;;;;3.90;2.30;;;5.20;72.40;;;;;;5047688;28;20215;-71
2021/01/20 00:41:07;;;;;;;5.40;3.20;;;5.00;73.20;;;;;;5048093;28;20530;-71
2021/01/20 00:43:33;;;;;;;4.57;2.67;;;5.00;73.70;;;;;;5048477;28;20241;-72
2021/01/20 00:45:58;;;;;;;3.30;2.33;;;4.90;73.90;;;;;;5047206;28;20205;-72
2021/01/20 00:48:24;;;;;;;2.83;1.83;;;4.80;74.30;;;;;;5048156;28;20183;-70
2021/01/20 00:50:57;;;;;;;3.77;2.20;;;4.70;75.20;;;;;;5047422;28;20191;-71
2021/01/20 00:53:23;;;;;;;3.50;1.73;;;4.60;75.80;;;;;;5047948;28;20419;-71
2021/01/20 00:55:49;;;;;;;4.50;2.20;;;4.50;76.40;;;;;;5047520;28;20454;-70
2021/01/20 00:58:15;;;;;;;5.30;3.10;;;4.50;76.80;;;;;;5047538;28;20435;-71
2021/01/20 01:00:41;;;;;;;3.77;2.10;;;4.50;76.80;;;;;;5047598;28;20437;-71
2021/01/20 01:03:07;;;;;;;2.23;2.03;;;4.30;77.60;;;;;;5047986;28;20514;-71
2021/01/20 01:05:34;;;;;;;3.10;2.03;;;4.30;78.00;;;;;;5047772;28;20230;-71
2021/01/20 01:07:59;;;;;;;2.90;1.80;;;4.30;78.40;;;;;;5046095;28;22143;-75
2021/01/20 01:10:25;;;;;;;3.90;2.40;;;4.30;78.60;;;;;;5056214;28;20498;-75
2021/01/20 01:12:51;;;;;;;2.80;1.85;;;4.30;78.90;;;;;;5060991;28;20181;-75
2021/01/20 01:15:17;;;;;;;2.43;1.93;;;4.30;79.00;;;;;;5054751;28;20617;-70
2021/01/20 01:17:43;;;;;;;3.07;1.83;;;4.30;79.20;;;;;;5052618;28;20180;-69
2021/01/20 01:20:09;;;;;;;3.10;1.90;;;4.30;79.20;;;;;;5061459;28;20177;-73
2021/01/20 01:22:34;;;;;;;4.07;2.63;;;4.30;79.50;;;;;;5052911;28;20271;-71
2021/01/20 01:25:00;;;;;;;5.97;2.33;;;4.40;79.30;;;;;;5051460;28;20515;-70
2021/01/20 01:27:26;;;;;;;2.90;2.17;;;4.40;79.00;;;;;;5059102;28;20980;-70
2021/01/20 01:29:52;;;;;;;1.90;1.37;;;4.50;79.00;;;;;;5071884;28;20193;-72
2021/01/20 01:32:17;;;;;;;1.93;1.30;;;4.60;78.70;;;;;;5068267;28;20204;-71
2021/01/20 01:34:44;;;;;;;2.03;1.33;;;4.80;77.70;;;;;;5072559;28;20191;-70
2021/01/20 01:37:10;;;;;;;2.33;1.50;;;5.00;76.80;;;;;;5073715;28;20445;-72
2021/01/20 01:39:36;;;;;;;1.70;1.13;;;5.40;75.10;;;;;;5050962;28;20472;-69
2021/01/20 01:42:04;;;;;;;2.23;1.27;;;5.80;73.00;;;;;;5062417;28;20858;-72
2021/01/20 01:44:30;;;;;;;2.97;1.20;;;6.10;71.30;;;;;;5056788;28;20934;-70
2021/01/20 01:46:56;;;;;;;1.97;1.23;;;6.40;70.10;;;;;;5072891;28;21316;-71
2021/01/20 01:49:22;;;;;;;2.43;1.40;;;6.60;69.10;;;;;;5072622;28;20475;-70
2021/01/20 01:51:49;;;;;;;1.60;1.07;;;6.60;68.80;;;;;;5072159;28;20229;-72
2021/01/20 01:54:16;;;;;;;2.93;1.40;;;6.60;68.80;;;;;;5071512;28;20414;-72
2021/01/20 01:56:43;;;;;;;1.73;1.30;;;6.60;68.80;;;;;;5068758;28;20509;-70
2021/01/20 01:59:09;;;;;;;3.63;1.60;;;6.60;68.90;;;;;;5051746;28;20506;-71
2021/01/20 02:01:34;;;;;;;1.37;1.30;;;6.60;68.80;;;;;;5052110;28;20502;-72
2021/01/20 02:04:00;;;;;;;2.67;1.80;;;6.60;69.10;;;;;;5052123;28;20271;-72
2021/01/20 02:06:26;;;;;;;2.60;1.60;;;6.40;69.70;;;;;;5051146;28;20255;-71
2021/01/20 02:08:53;;;;;;;1.47;1.20;;;6.30;70.20;;;;;;5051759;28;20185;-71
2021/01/20 02:11:21;;;;;;;2.80;1.37;;;6.00;71.10;;;;;;5051738;28;20191;-71
2021/01/20 02:14:07;;;;;;;2.40;2.03;;;6.10;70.80;;;;;;5065432;28;20429;-72
2021/01/20 02:16:37;;;;;;;4.03;2.00;;;5.90;72.00;;;;;;5051160;28;20451;-69
2021/01/20 02:19:09;;;;;;;3.17;2.13;;;5.60;72.90;;;;;;5051345;28;20505;-70
2021/01/20 02:21:35;;;;;;;5.60;2.50;;;5.40;74.00;;;;;;5052128;28;20426;-71
2021/01/20 02:24:08;;;;;;;4.20;1.60;;;5.40;74.50;;;;;;5052835;28;20469;-70
2021/01/20 02:26:45;;;;;;;3.40;1.80;;;5.30;74.90;;;;;;5067304;28;20220;-72
2021/01/20 02:29:11;;;;;;;1.77;1.40;;;5.50;73.60;;;;;;5061481;28;20960;-70
2021/01/20 02:31:38;;;;;;;2.77;1.60;;;6.00;71.10;;;;;;5053733;28;20453;-72
2021/01/20 02:34:09;;;;;;;1.83;1.30;;;6.10;70.70;;;;;;5071571;28;20199;-71
2021/01/20 02:36:36;;;;;;;2.17;1.37;;;6.10;71.00;;;;;;5056496;28;20445;-72
2021/01/20 02:39:02;;;;;;;2.83;2.10;;;6.10;70.50;;;;;;5051112;28;20942;-71
2021/01/20 02:41:29;;;;;;;3.10;2.10;;;6.10;71.10;;;;;;5054345;28;20441;-70
2021/01/20 02:44:00;;;;;;;3.30;1.70;;;5.90;72.00;;;;;;5051098;28;20522;-70
2021/01/20 02:46:26;;;;;;;3.17;2.03;;;5.80;72.90;;;;;;5050006;28;21208;-71
2021/01/20 02:48:54;;;;;;;3.40;1.70;;;5.80;72.40;;;;;;5050262;28;20428;-71
2021/01/20 02:51:36;;;;;;;3.93;1.90;;;5.70;73.50;;;;;;5051688;28;20948;-71
2021/01/20 02:54:03;;;;;;;2.60;1.73;;;5.30;74.90;;;;;;5053356;28;20514;-71
2021/01/20 02:56:31;;;;;;;2.83;1.60;;;5.10;76.40;;;;;;5051721;28;20955;-71
2021/01/20 02:59:02;;;;;;;3.63;2.30;;;5.10;76.80;;;;;;5051501;28;20430;-72
2021/01/20 03:01:30;;;;;;;2.40;1.70;;;5.00;77.10;;;;;;5051341;28;20438;-71
2021/01/20 03:03:59;;;;;;;4.77;2.40;;;5.00;77.40;;;;;;5051036;28;20616;-70
2021/01/20 03:06:26;;;;;;;3.97;2.27;;;4.90;78.00;;;;;;5048708;28;20478;-71
2021/01/20 03:08:54;;;;;;;2.80;1.80;;;5.00;78.00;;;;;;5051853;28;20427;-71
2021/01/20 03:11:19;;;;;;;4.15;2.00;;;4.90;78.10;;;;;;5052788;28;20430;-71
2021/01/20 03:13:47;;;;;;;4.20;2.27;;;4.80;78.60;;;;;;5052535;28;20184;-71
2021/01/20 03:16:13;;;;;;;3.87;1.90;;;4.80;78.70;;;;;;5053118;28;20200;-70
2021/01/20 03:18:39;;;;;;;3.13;2.10;;;4.70;79.20;;;;;;5053549;28;20884;-71
2021/01/20 03:21:05;;;;;;;3.63;1.60;;;4.70;79.30;;;;;;5062091;28;20952;-72
2021/01/20 03:23:31;;;;;;;2.00;1.70;;;4.70;79.50;;;;;;5050388;28;20262;-71
2021/01/20 03:25:57;;;;;;;3.83;1.77;;;4.60;80.00;;;;;;5049539;28;20474;-71
2021/01/20 03:28:23;;;;;;;2.20;1.70;;;4.60;80.00;;;;;;5060637;28;20550;-72
2021/01/20 03:30:50;;;;;;;5.53;2.10;;;4.60;80.00;;;;;;5069691;28;20190;-72
2021/01/20 03:33:16;;;;;;;1.97;1.70;;;4.70;79.60;;;;;;5070025;28;20448;-71
2021/01/20 03:35:41;;;;;;;2.37;2.00;;;4.70;79.60;;;;;;5049326;28;20443;-73
2021/01/20 03:38:08;;;;;;;2.63;1.80;;;4.80;79.50;;;;;;5048547;28;20275;-71
2021/01/20 03:40:35;;;;;;;3.80;1.97;;;4.80;79.30;;;;;;5049811;28;20183;-71
2021/01/20 03:43:00;;;;;;;2.27;1.60;;;4.70;79.50;;;;;;5062498;28;20429;-71
2021/01/20 03:45:26;;;;;;;4.07;2.17;;;4.70;79.60;;;;;;5069563;28;20426;-72
2021/01/20 03:47:52;;;;;;;3.00;1.90;;;4.60;80.00;;;;;;5069687;28;20207;-71
2021/01/20 03:50:18;;;;;;;3.93;2.03;;;4.60;80.30;;;;;;5069903;28;20176;-71
2021/01/20 03:52:43;;;;;;;3.00;1.80;;;4.50;80.80;;;;;;5070809;28;20187;-72
2021/01/20 03:55:09;;;;;;;5.33;2.23;;;4.50;80.80;;;;;;5069777;28;20241;-71
2021/01/20 03:57:35;;;;;;;3.00;2.03;;;4.50;80.80;;;;;;5071850;28;20227;-72
2021/01/20 04:00:01;;;;;;;3.47;1.83;;;4.60;80.80;;;;;;5071749;28;20531;-68
2021/01/20 04:02:27;;;;;;;3.30;2.20;;;4.60;80.30;;;;;;5057971;28;20203;-70
2021/01/20 04:04:53;;;;;;;1.63;1.60;;;4.50;80.60;;;;;;5048948;28;20208;-70
2021/01/20 04:07:18;;;;;;;3.33;2.00;;;4.60;80.60;;;;;;5047657;28;21021;-71
2021/01/20 04:09:44;;;;;;;3.30;1.73;;;4.50;80.60;;;;;;5049082;28;20188;-71
2021/01/20 04:12:10;;;;;;;4.20;2.60;;;4.50;81.10;;;;;;5049741;28;20333;-70
2021/01/20 04:14:36;;;;;;;3.80;2.07;;;4.40;81.20;;;;;;5048971;28;20187;-72
2021/01/20 04:17:01;;;;;;;2.10;1.73;;;4.40;81.20;;;;;;5061532;28;20953;-71
2021/01/20 04:19:27;;;;;;;2.87;1.80;;;4.40;81.40;;;;;;5048334;28;20215;-69
2021/01/20 04:21:53;;;;;;;3.50;1.80;;;4.50;81.20;;;;;;5049430;28;20192;-72
2021/01/20 04:24:18;;;;;;;2.57;1.87;;;4.50;81.10;;;;;;5048654;28;20214;-71
2021/01/20 04:26:45;;;;;;;6.13;1.70;;;4.60;80.80;;;;;;5045702;28;20636;-72
2021/01/20 04:29:16;;;;;;;4.27;1.80;;;4.70;80.00;;;;;;5049575;28;20188;-72
2021/01/20 04:31:42;;;;;;;2.07;1.47;;;4.80;79.30;;;;;;5048095;28;20476;-72
2021/01/20 04:34:08;;;;;;;2.87;2.00;;;4.80;78.90;;;;;;5048009;28;20447;-72
2021/01/20 04:36:34;;;;;;;2.57;1.13;;;5.10;77.30;;;;;;5049083;28;20458;-72
2021/01/20 04:39:00;;;;;;;2.90;1.23;;;5.50;74.90;;;;;;5051507;28;20518;-71
2021/01/20 04:41:27;;;;;;;4.43;1.63;;;5.90;72.90;;;;;;5050078;28;20534;-70
2021/01/20 04:43:52;;;;;;;2.00;1.43;;;6.10;71.70;;;;;;5049134;28;20668;-70
2021/01/20 04:46:19;;;;;;;2.43;1.60;;;6.10;71.60;;;;;;5062229;28;20465;-71
2021/01/20 04:48:48;;;;;;;3.93;2.03;;;6.10;72.10;;;;;;5050906;28;20191;-71
2021/01/20 04:51:18;;;;;;;3.27;2.27;;;5.90;72.70;;;;;;5065998;28;21001;-72
2021/01/20 04:53:45;;;;;;;3.30;1.30;;;5.60;74.20;;;;;;5061589;28;20422;-73
2021/01/20 04:56:13;;;;;;;3.13;2.00;;;5.40;75.20;;;;;;5065231;28;20434;-72
2021/01/20 04:58:39;;;;;;;2.70;1.70;;;5.30;76.10;;;;;;5058951;28;20424;-72
2021/01/20 05:01:05;;;;;;;3.13;1.63;;;5.20;77.00;;;;;;5068771;28;20428;-72
2021/01/20 05:03:31;;;;;;;3.63;2.10;;;5.20;76.70;;;;;;5059493;28;20862;-73
2021/01/20 05:05:58;;;;;;;2.47;1.77;;;5.20;76.70;;;;;;5046931;28;20442;-71
2021/01/20 05:08:24;;;;;;;1.90;1.40;;;5.30;75.70;;;;;;5045653;28;20427;-70
2021/01/20 05:10:50;;;;;;;3.73;1.73;;;5.60;73.00;;;;;;5045472;28;20427;-71
2021/01/20 05:13:30;;;;;;;4.90;2.03;;;5.70;73.50;;;;;;5047546;28;20911;-70
2021/01/20 05:15:57;;;;;;;2.50;1.60;;;5.60;73.90;;;;;;5045446;28;20584;-71
2021/01/20 05:18:22;;;;;;;4.17;1.77;;;5.50;74.00;;;;;;5048279;28;20981;-72
2021/01/20 05:20:49;;;;;;;2.80;2.00;;;5.40;74.80;;;;;;5048138;28;20418;-71
2021/01/20 05:23:14;;;;;;;2.77;1.83;;;5.40;75.50;;;;;;5048663;28;20678;-72
2021/01/20 05:25:40;;;;;;;4.50;1.90;;;5.30;75.40;;;;;;5047966;28;20470;-70
2021/01/20 05:28:23;;;;;;;3.40;2.20;;;5.20;75.90;;;;;;5048304;28;20840;-70
2021/01/20 05:30:57;;;;;;;2.20;1.60;;;5.10;76.20;;;;;;5048454;28;20207;-71
2021/01/20 05:33:41;;;;;;;4.90;2.30;;;5.20;76.20;;;;;;5048532;28;20431;-71
2021/01/20 05:36:12;;;;;;;5.70;2.20;;;5.20;75.40;;;;;;5047945;28;20447;-72
2021/01/20 05:38:47;;;;;;;2.40;1.80;;;5.30;75.50;;;;;;5047428;28;21234;-72
2021/01/20 05:41:22;;;;;;;2.70;1.67;;;5.30;75.50;;;;;;5048890;28;20522;-71
2021/01/20 05:43:50;;;;;;;3.70;2.03;;;5.30;75.40;;;;;;5035919;28;20433;-73
2021/01/20 05:46:36;;;;;;;2.80;1.93;;;5.30;74.80;;;;;;5061616;28;20476;-71
2021/01/20 05:49:03;;;;;;;3.00;1.90;;;5.40;74.60;;;;;;5047273;28;20427;-72
2021/01/20 05:51:42;;;;;;;5.90;2.37;;;5.40;74.00;;;;;;5052557;28;20508;-71
2021/01/20 05:54:09;;;;;;;4.43;2.43;;;5.50;73.90;;;;;;5058169;28;20419;-71
2021/01/20 05:56:35;;;;;;;4.53;2.17;;;5.50;73.90;;;;;;5057722;28;20442;-70
2021/01/20 05:59:01;;;;;;;4.30;2.10;;;5.60;73.00;;;;;;5059982;28;20496;-70
2021/01/20 06:01:28;;;;;;;4.50;2.77;;;5.60;73.30;;;;;;5052456;28;20435;-71
2021/01/20 06:03:54;;;;;;;3.73;2.47;;;5.60;73.30;;;;;;5051923;28;20433;-71
2021/01/20 06:06:21;;;;;;;3.40;1.83;;;5.50;73.70;;;;;;5052976;28;21026;-71
2021/01/20 06:08:47;;;;;;;4.40;2.17;;;5.50;73.70;;;;;;5052705;28;20423;-71
2021/01/20 06:11:13;;;;;;;3.87;2.47;;;5.60;73.70;;;;;;5053560;28;20426;-72
2021/01/20 06:13:40;;;;;;;3.03;1.93;;;5.50;73.60;;;;;;5055806;28;20419;-71
2021/01/20 06:16:18;;;;;;;3.90;2.33;;;5.40;74.00;;;;;;5051889;28;20462;-72
2021/01/20 06:18:54;;;;;;;3.70;2.40;;;5.40;74.30;;;;;;5050171;28;20434;-72
2021/01/20 06:21:20;;;;;;;5.03;2.13;;;5.40;74.30;;;;;;5050382;28;20426;-72
2021/01/20 06:23:49;;;;;;;2.83;2.10;;;5.40;74.60;;;;;;5051600;28;20453;-71
2021/01/20 06:26:15;;;;;;;5.00;2.43;;;5.40;74.50;;;;;;5058572;28;20964;-71
2021/01/20 06:28:50;;;;;;;2.83;1.93;;;5.40;74.00;;;;;;5071094;28;20417;-72
2021/01/20 06:31:17;;;;;;;8.70;2.60;;;5.40;74.00;;;;;;5071272;28;20497;-71
2021/01/20 06:33:42;;;;;;;3.93;2.47;;;5.40;74.00;;;;;;5054351;28;20439;-71
2021/01/20 06:36:08;;;;;;;3.77;2.13;;;5.40;73.90;;;;;;5050711;28;20450;-71
2021/01/20 06:38:36;;;;;;;2.67;2.07;;;5.40;74.00;;;;;;5051657;28;21189;-71
2021/01/20 06:41:40;;;;;;;4.50;2.37;;;5.40;74.00;;;;;;5051819;28;20462;-72
2021/01/20 06:44:14;;;;;;;3.33;2.03;;;5.30;74.90;;;;;;5040759;28;20514;-71
2021/01/20 06:46:58;;;;;;;5.43;2.27;;;5.30;75.40;;;;;;5053126;28;20483;-72
2021/01/20 06:49:28;;;;;;;3.70;2.10;;;5.30;75.20;;;;;;5066276;28;20418;-71
2021/01/20 06:52:12;;;;;;;7.23;2.57;;;5.30;75.50;;;;;;5073463;28;20420;-72
2021/01/20 06:54:43;;;;;;;3.87;2.47;;;5.20;75.80;;;;;;5073394;28;20502;-71
2021/01/20 06:57:28;;;;;;;4.00;2.33;;;5.20;75.90;;;;;;5053199;28;20466;-69
2021/01/20 07:00:09;;;;;;;5.90;2.90;;;5.20;75.90;;;;;;5045817;28;20427;-70
2021/01/20 07:02:36;;;;;;;3.80;2.77;;;5.20;75.90;;;;;;5062522;28;20422;-72
2021/01/20 07:05:03;;;;;;;2.60;2.00;;;5.30;76.10;;;;;;5052262;28;20423;-69
2021/01/20 07:07:56;;;;;;;5.33;2.40;;;5.30;75.90;;;;;;5052689;28;20475;-72
2021/01/20 07:10:26;;;;;;;5.53;2.40;;;5.30;75.40;;;;;;5043576;28;20426;-72
2021/01/20 07:13:10;;;;;;;4.23;2.63;;;5.30;75.70;;;;;;5045708;28;20496;-69
2021/01/20 07:15:40;;;;;;;2.23;1.97;;;5.40;75.40;;;;;;5043702;28;20458;-72
2021/01/20 07:18:07;;;;;;;6.33;2.77;;;5.50;74.80;;;;;;5046191;28;20434;-71
2021/01/20 07:20:33;;;;;;;3.10;2.30;;;5.50;74.80;;;;;;5059378;28;20465;-70
2021/01/20 07:23:00;;;;;;;4.27;2.43;;;5.50;74.50;;;;;;5046059;28;20449;-72
2021/01/20 07:25:26;;;;;;;5.33;2.53;;;5.50;74.90;;;;;;5059529;28;21178;-71
2021/01/20 07:27:55;;;;;;;6.97;2.77;;;5.60;74.50;;;;;;5045925;28;20474;-71
2021/01/20 07:30:22;;;;;;;4.80;2.50;;;5.60;74.20;;;;;;5048396;28;20966;-71
2021/01/20 07:32:48;;;;;;;5.37;2.73;;;5.60;74.00;;;;;;5065907;28;20893;-71
2021/01/20 07:35:18;;;;;;;5.87;2.97;;;5.60;73.70;;;;;;5065534;28;20921;-72
2021/01/20 07:37:44;;;;;;;6.90;2.80;;;5.70;73.70;;;;;;5058308;28;20458;-72
2021/01/20 07:40:10;;;;;;;4.87;2.73;;;5.80;73.30;;;;;;5062092;28;20430;-69
2021/01/20 07:42:40;;;;;;;4.47;2.40;;;5.80;72.90;;;;;;5054922;28;20449;-69
2021/01/20 07:45:06;;;;;;;3.97;2.40;;;5.80;73.00;;;;;;5058274;28;20468;-70
2021/01/20 07:47:46;;;;;;;5.30;2.67;;;5.80;72.90;;;;;;5054600;28;20570;-70
2021/01/20 07:50:12;;;;;;;9.10;3.20;;;5.90;72.60;;;;;;5056887;28;20441;-71
2021/01/20 07:52:39;;;;;;;3.70;2.50;;;6.00;72.30;;;;;;5066123;28;20449;-72
2021/01/20 07:55:17;;;;;;;4.40;2.53;;;6.00;72.10;;;;;;5059225;28;21084;-71
2021/01/20 07:57:43;;;;;;;3.57;2.37;;;6.10;72.10;;;;;;5041430;28;20537;-70
2021/01/20 08:00:11;;;;;;;3.93;2.33;;;6.10;71.40;;;;;;5055538;28;20520;-70
2021/01/20 08:02:46;;;;;;;3.90;2.40;;;6.20;71.00;;;;;;5058676;28;20434;-71
2021/01/20 08:05:12;;;;;;;3.43;2.10;;;6.30;70.70;;;;;;5049284;28;20442;-71
2021/01/20 08:07:38;;;;;;;5.27;2.13;;;6.30;70.70;;;;;;5066471;28;20512;-71
2021/01/20 08:10:05;;;;;;;3.57;2.20;;;6.30;70.20;;;;;;5067666;28;20816;-72
2021/01/20 08:12:33;;;;;;;8.10;2.60;;;6.40;69.70;;;;;;5067878;28;20180;-71
2021/01/20 08:15:00;;;;;;;7.37;2.53;;;6.40;69.20;;;;;;5068493;28;20792;-70
2021/01/20 08:17:26;;;;;;;4.23;2.07;;;6.40;68.90;;;;;;5067924;28;20593;-71
2021/01/20 08:19:55;;;;;;;4.97;2.67;;;6.40;68.00;;;;;;5059186;28;20537;-71
2021/01/20 08:22:22;;;;;;;6.00;2.70;;;6.50;67.70;;;;;;5069963;28;20430;-73
2021/01/20 08:24:49;;;;;;;9.40;2.37;;;6.50;67.50;;;;;;5071245;28;20422;-74
2021/01/20 08:27:24;;;;;;;5.10;2.33;;;6.50;67.20;;;;;;5048113;28;20563;-72
2021/01/20 08:29:52;;;;;;;4.77;2.80;;;6.60;67.00;;;;;;5049026;28;20468;-72
2021/01/20 08:32:18;;;;;;;4.23;3.00;;;6.70;66.90;;;;;;5051716;28;20435;-72
2021/01/20 08:34:45;;;;;;;4.20;2.70;;;6.70;66.70;;;;;;5048410;28;20749;-71
2021/01/20 08:37:17;;;;;;;5.50;2.90;;;6.80;66.60;;;;;;5055748;28;21009;-72
2021/01/20 08:39:52;;;;;;;9.10;2.57;;;6.80;66.10;;;;;;5050590;28;20435;-71
2021/01/20 08:42:22;;;;;;;5.37;2.73;;;6.90;66.10;;;;;;5049042;28;20455;-71
2021/01/20 08:45:06;;;;;;;8.73;2.90;;;6.80;66.00;;;;;;5047651;28;20480;-70
2021/01/20 08:48:05;;;;;;;5.80;2.97;;;6.70;66.60;;;;;;5049075;28;20470;-71
2021/01/20 08:50:42;;;;;;;4.23;2.50;;;6.70;66.70;;;;;;4977196;28;20925;-72
2021/01/20 08:53:10;;;;;;;5.40;2.97;;;6.70;67.00;;;;;;4953504;28;20468;-71
2021/01/20 08:55:40;;;;;;;7.63;3.70;;;6.70;67.60;;;;;;4967039;28;20513;-71
2021/01/20 08:58:24;;;;;;;5.53;3.10;;;6.60;67.70;;;;;;4968017;28;20437;-73
2021/01/20 09:01:27;;;;;;;4.27;2.30;;;6.70;68.00;;;;;;4968118;28;20445;-72
2021/01/20 09:04:00;;;;;;;4.97;3.20;;;6.80;67.90;;;;;;4970046;28;20944;-72
2021/01/20 09:06:26;;;;;;;5.93;3.07;;;6.90;67.00;;;;;;4968038;28;20584;-71
2021/01/20 09:08:54;;;;;;;5.60;3.10;;;6.80;67.20;;;;;;4969652;28;20996;-72
2021/01/20 09:11:20;;;;;;;6.80;3.00;;;6.80;67.00;;;;;;4970062;28;20453;-73
2021/01/20 09:13:47;;;;;;;7.13;3.33;;;6.80;67.90;;;;;;4967720;28;20558;-72
2021/01/20 09:16:13;;;;;;;7.60;3.23;;;6.80;67.90;;;;;;4966581;28;20502;-74
2021/01/20 09:18:39;;;;;;;4.57;2.87;;;6.80;67.70;;;;;;4968072;28;20445;-72
2021/01/20 09:21:05;;;;;;;6.13;2.80;;;6.80;68.00;;;;;;4968973;28;20529;-71
2021/01/20 09:23:32;;;;;;;5.10;2.77;;;6.80;68.30;;;;;;4968275;28;20610;-70
2021/01/20 09:25:58;;;;;;;7.77;3.30;;;6.90;67.90;;;;;;5004970;28;20454;-71
2021/01/20 09:28:24;;;;;;;9.50;3.70;;;7.10;67.30;;;;;;5051297;28;20509;-71
2021/01/20 09:30:50;;;;;;;5.90;2.87;;;7.20;65.40;;;;;;5054475;28;20430;-72
2021/01/20 09:33:16;;;;;;;4.57;3.27;;;7.20;65.00;;;;;;5055670;28;20446;-71
2021/01/20 09:35:43;;;;;;;6.30;4.10;;;7.20;65.10;;;;;;5055700;28;20448;-72
2021/01/20 09:38:09;;;;;;;6.40;3.67;;;7.10;65.80;;;;;;5053964;28;20695;-72
2021/01/20 09:40:35;;;;;;;21.20;3.80;;;7.10;66.00;;;;;;5052531;28;20533;-70
2021/01/20 09:43:01;;;;;;;8.60;4.07;;;7.20;65.80;;;;;;5052937;28;20496;-72
2021/01/20 09:45:29;;;;;;;8.90;3.77;;;7.20;66.00;;;;;;5050417;28;20466;-71
2021/01/20 09:47:56;;;;;;;17.50;4.47;;;7.30;65.60;;;;;;5064324;28;20470;-71
2021/01/20 09:50:23;;;;;;;5.77;3.80;;;7.40;65.60;;;;;;5073555;28;20430;-72
2021/01/20 09:52:50;;;;;;;9.17;4.33;;;7.40;64.70;;;;;;5060280;28;20439;-72
2021/01/20 09:55:16;;;;;;;8.73;3.77;;;7.30;64.80;;;;;;5064916;28;20447;-70
2021/01/20 09:57:42;;;;;;;16.77;4.57;;;7.50;64.50;;;;;;5052485;28;20422;-71
2021/01/20 10:00:09;;;;;;;9.40;3.83;;;7.60;64.50;;;;;;5052511;28;20419;-71
2021/01/20 10:02:37;;;;;;;8.80;3.27;;;7.60;64.20;;;;;;5053015;28;20433;-71
2021/01/20 10:05:03;;;;;;;5.30;2.70;;;7.70;63.40;;;;;;5051982;28;20545;-73
2021/01/20 10:07:29;;;;;;;6.40;2.90;;;7.60;63.10;;;;;;5052308;28;20470;-72
2021/01/20 10:09:55;;;;;;;5.13;2.80;;;7.50;62.90;;;;;;5051473;28;20517;-72
2021/01/20 10:12:20;;;;;;;7.10;3.40;;;7.50;63.70;;;;;;5052415;28;20184;-72
2021/01/20 10:14:46;;;;;;;5.30;3.27;;;7.50;63.50;;;;;;5051229;28;20648;-71
2021/01/20 10:17:12;;;;;;;5.20;2.97;;;7.50;63.70;;;;;;5052821;28;20625;-72
2021/01/20 10:19:38;;;;;;;8.20;3.30;;;7.50;63.70;;;;;;5064818;28;20188;-73
2021/01/20 10:22:04;;;;;;;8.97;3.20;;;7.60;63.70;;;;;;5050352;28;20443;-72
2021/01/20 10:24:29;;;;;;;10.83;4.13;;;7.80;63.70;;;;;;5037794;28;20423;-71
2021/01/20 10:26:56;;;;;;;8.57;3.30;;;7.90;62.50;;;;;;5050745;28;20209;-73
2021/01/20 10:29:22;;;;;;;5.50;3.23;;;8.00;62.20;;;;;;5051236;28;20734;-71
2021/01/20 10:31:47;;;;;;;11.90;3.60;;;8.10;61.90;;;;;;5052072;28;20514;-70
2021/01/20 10:34:13;;;;;;;13.80;4.60;;;8.10;61.50;;;;;;5062599;28;20583;-71
2021/01/20 10:36:40;;;;;;;8.13;3.30;;;8.10;61.60;;;;;;5051247;28;20204;-72
2021/01/20 10:39:08;;;;;;;14.67;4.37;;;8.00;61.90;;;;;;5050934;28;20255;-72
2021/01/20 10:41:34;;;;;;;6.97;3.40;;;8.00;62.50;;;;;;5051451;28;20449;-71
2021/01/20 10:44:00;;;;;;;8.00;3.30;;;8.00;62.30;;;;;;5059667;28;20458;-73
2021/01/20 10:46:26;;;;;;;9.70;4.07;;;8.20;61.90;;;;;;5049462;28;20588;-72
2021/01/20 10:48:53;;;;;;;11.73;3.87;;;8.30;61.30;;;;;;5068805;28;20187;-72
2021/01/20 10:51:19;;;;;;;12.20;4.80;;;8.20;61.50;;;;;;5072436;28;20180;-71
2021/01/20 10:53:45;;;;;;;14.83;4.50;;;8.20;62.00;;;;;;5069041;28;20429;-73
2021/01/20 10:56:10;;;;;;;12.07;3.83;;;8.20;61.70;;;;;;5064318;28;20510;-72
2021/01/20 10:58:37;;;;;;;9.03;3.90;;;8.30;61.50;;;;;;5071480;28;20192;-72
2021/01/20 11:01:04;;;;;;;10.47;3.70;;;8.20;61.20;;;;;;5071086;28;20188;-72
2021/01/20 11:03:30;;;;;;;7.80;4.17;;;8.30;61.20;;;;;;5069195;28;20480;-72
2021/01/20 11:05:55;;;;;;;7.33;3.93;;;8.40;61.00;;;;;;5069520;28;20442;-72
2021/01/20 11:08:22;;;;;;;9.33;3.30;;;8.50;60.90;;;;;;5064206;28;20430;-73
2021/01/20 11:10:47;;;;;;;10.77;3.60;;;8.50;59.30;;;;;;5059284;28;20193;-70
2021/01/20 11:13:14;;;;;;;6.67;3.70;;;8.50;59.30;;;;;;5056797;28;20418;-72
2021/01/20 11:15:48;;;;;;;7.97;4.50;;;8.50;59.70;;;;;;5069554;28;20506;-71
2021/01/20 11:18:15;;;;;;;5.83;3.47;;;8.70;59.30;;;;;;5071784;28;20548;-72
2021/01/20 11:20:42;;;;;;;6.57;3.57;;;8.80;58.40;;;;;;5056953;28;20438;-71
2021/01/20 11:23:12;;;;;;;7.10;3.60;;;8.80;57.80;;;;;;5052718;28;20783;-71
2021/01/20 11:25:44;;;;;;;15.37;4.20;;;8.80;58.40;;;;;;5053522;28;20589;-71
2021/01/20 11:28:11;;;;;;;5.30;3.33;;;8.60;58.50;;;;;;5045283;28;20942;-71
2021/01/20 11:30:37;;;;;;;6.07;4.10;;;8.60;59.10;;;;;;5070559;28;20422;-70
2021/01/20 11:33:03;;;;;;;9.23;4.03;;;8.50;59.30;;;;;;5071053;28;20964;-71
2021/01/20 11:35:29;;;;;;;5.47;3.80;;;8.60;59.30;;;;;;5071832;28;20445;-72
2021/01/20 11:37:56;;;;;;;6.33;3.43;;;8.60;59.50;;;;;;5056745;28;20826;-71
2021/01/20 11:40:32;;;;;;;6.70;3.63;;;8.60;58.80;;;;;;5061287;28;20773;-72
2021/01/20 11:42:58;;;;;;;6.33;3.40;;;8.60;59.30;;;;;;5053219;28;20431;-72
2021/01/20 11:45:35;;;;;;;9.80;4.07;;;8.60;59.10;;;;;;5049563;28;20976;-71
2021/01/20 11:48:03;;;;;;;11.37;4.03;;;8.70;59.10;;;;;;5048923;28;20840;-71
2021/01/20 11:50:29;;;;;;;7.40;3.80;;;8.70;59.20;;;;;;5051282;28;20509;-71
2021/01/20 11:52:55;;;;;;;8.00;3.63;;;8.80;58.80;;;;;;5050213;28;20453;-72
2021/01/20 11:55:22;;;;;;;6.43;4.53;;;8.80;58.90;;;;;;5050770;28;20985;-72
2021/01/20 11:57:48;;;;;;;7.17;4.20;;;8.90;58.50;;;;;;5049495;28;20443;-72
2021/01/20 12:00:16;;;;;;;6.37;4.00;;;8.90;58.80;;;;;;5049962;28;20450;-70
2021/01/20 12:02:42;;;;;;;10.10;4.90;;;8.80;58.40;;;;;;5053819;28;20490;-73
2021/01/20 12:05:09;;;;;;;12.50;4.60;;;8.80;58.80;;;;;;5071393;28;20460;-71
2021/01/20 12:07:37;;;;;;;8.43;4.40;;;8.80;58.80;;;;;;5059371;28;20466;-73
2021/01/20 12:10:03;;;;;;;13.20;4.20;;;8.80;58.00;;;;;;5062578;28;20688;-72
2021/01/20 12:12:29;;;;;;;11.23;4.70;;;8.80;58.90;;;;;;5050631;28;20810;-72
2021/01/20 12:14:55;;;;;;;12.93;5.00;;;8.90;58.70;;;;;;5049314;28;20426;-71
2021/01/20 12:17:20;;;;;;;12.60;4.47;;;9.00;58.50;;;;;;5050207;28;20196;-72
2021/01/20 12:19:46;;;;;;;13.90;4.77;;;9.00;58.50;;;;;;5056790;28;20188;-71
2021/01/20 12:22:12;;;;;;;10.07;3.70;;;9.00;58.40;;;;;;5073937;28;20180;-72
2021/01/20 12:24:38;;;;;;;10.60;4.40;;;9.10;57.60;;;;;;5051432;28;20656;-71
2021/01/20 12:27:03;;;;;;;8.10;3.90;;;8.90;57.70;;;;;;5053439;28;20390;-72
2021/01/20 12:29:29;;;;;;;13.63;4.03;;;8.90;58.10;;;;;;5053567;28;20500;-72
2021/01/20 12:31:55;;;;;;;15.57;4.90;;;9.00;57.60;;;;;;5050391;28;20207;-71
2021/01/20 12:34:21;;;;;;;12.40;4.43;;;9.00;57.80;;;;;;5045798;28;20454;-72
2021/01/20 12:36:47;;;;;;;6.33;3.93;;;9.10;57.80;;;;;;5045259;28;20208;-72
2021/01/20 12:39:13;;;;;;;7.67;3.87;;;9.10;57.60;;;;;;5043872;28;20562;-72
2021/01/20 12:41:39;;;;;;;6.87;4.20;;;8.90;57.70;;;;;;5045429;28;20506;-70
2021/01/20 12:44:06;;;;;;;6.43;3.70;;;8.90;58.00;;;;;;5044752;28;20500;-71
2021/01/20 12:46:31;;;;;;;5.73;3.70;;;8.90;58.70;;;;;;5043847;28;20641;-73
2021/01/20 12:48:58;;;;;;;8.67;4.00;;;9.00;58.80;;;;;;5048612;28;20491;-72
2021/01/20 12:51:23;;;;;;;9.40;4.33;;;9.00;58.50;;;;;;5051311;28;20941;-72
2021/01/20 12:53:49;;;;;;;9.47;3.67;;;9.00;58.70;;;;;;5045595;28;20557;-71
2021/01/20 12:56:15;;;;;;;8.47;3.63;;;9.10;58.40;;;;;;5044467;28;20287;-72
2021/01/20 12:58:41;;;;;;;9.83;3.60;;;9.20;57.80;;;;;;5044496;28;20183;-72
2021/01/20 13:01:07;;;;;;;10.40;4.27;;;9.30;57.80;;;;;;5044808;28;20457;-71